sensor_id;sensor_type;location;lat;lon;timestamp;P1;durP1;ratioP1;P2;durP2;ratioP2
74872;SDS011;68776;44.762;37.698;2023-07-29T00:00:44;2.30;;;0.75;;
74872;SDS011;68776;44.762;37.698;2023-07-29T00:01:45;4.32;;;1.17;;
74872;SDS011;68776;44.762;37.698;2023-07-29T00:02:46;3.10;;;0.90;;
74872;SDS011;68776;44.762;37.698;2023-07-29T00:03:47;3.20;;;0.95;;
74872;SDS011;68776;44.762;37.698;2023-07-29T00:04:48;3.13;;;1.00;;
74872;SDS011;68776;44.762;37.698;2023-07-29T00:05:49;7.53;;;1.30;;
74872;SDS011;68776;44.762;37.698;2023-07-29T00:06:50;3.33;;;1.02;;
74872;SDS011;68776;44.762;37.698;2023-07-29T00:07:51;2.22;;;0.65;;
74872;SDS011;68776;44.762;37.698;2023-07-29T00:08:52;3.55;;;0.88;;
74872;SDS011;68776;44.762;37.698;2023-07-29T00:09:53;3.45;;;1.00;;
74872;SDS011;68776;44.762;37.698;2023-07-29T00:10:54;4.60;;;1.10;;
74872;SDS011;68776;44.762;37.698;2023-07-29T00:11:55;4.10;;;0.80;;
74872;SDS011;68776;44.762;37.698;2023-07-29T00:12:56;3.53;;;0.90;;
74872;SDS011;68776;44.762;37.698;2023-07-29T00:13:57;2.90;;;0.80;;
74872;SDS011;68776;44.762;37.698;2023-07-29T00:14:58;3.58;;;0.90;;
74872;SDS011;68776;44.762;37.698;2023-07-29T00:15:59;3.38;;;1.13;;
74872;SDS011;68776;44.762;37.698;2023-07-29T00:17:00;3.83;;;1.17;;
74872;SDS011;68776;44.762;37.698;2023-07-29T00:18:01;4.85;;;0.98;;
74872;SDS011;68776;44.762;37.698;2023-07-29T00:19:02;5.38;;;1.23;;
74872;SDS011;68776;44.762;37.698;2023-07-29T00:20:04;3.55;;;0.85;;
74872;SDS011;68776;44.762;37.698;2023-07-29T00:21:06;3.78;;;0.90;;
74872;SDS011;68776;44.762;37.698;2023-07-29T00:22:07;4.10;;;1.10;;
74872;SDS011;68776;44.762;37.698;2023-07-29T00:23:08;4.10;;;0.80;;
74872;SDS011;68776;44.762;37.698;2023-07-29T00:24:09;3.50;;;0.93;;
74872;SDS011;68776;44.762;37.698;2023-07-29T00:25:10;2.27;;;0.57;;
74872;SDS011;68776;44.762;37.698;2023-07-29T00:26:11;2.75;;;0.90;;
74872;SDS011;68776;44.762;37.698;2023-07-29T00:27:12;2.95;;;0.80;;
74872;SDS011;68776;44.762;37.698;2023-07-29T00:28:13;2.45;;;0.68;;
74872;SDS011;68776;44.762;37.698;2023-07-29T00:29:14;3.42;;;0.90;;
74872;SDS011;68776;44.762;37.698;2023-07-29T00:30:15;3.15;;;0.77;;
74872;SDS011;68776;44.762;37.698;2023-07-29T00:31:17;2.80;;;0.90;;
74872;SDS011;68776;44.762;37.698;2023-07-29T00:32:18;3.22;;;1.17;;
74872;SDS011;68776;44.762;37.698;2023-07-29T00:33:19;2.77;;;0.80;;
74872;SDS011;68776;44.762;37.698;2023-07-29T00:34:21;3.05;;;0.93;;
74872;SDS011;68776;44.762;37.698;2023-07-29T00:35:22;2.73;;;0.80;;
74872;SDS011;68776;44.762;37.698;2023-07-29T00:36:23;5.13;;;1.15;;
74872;SDS011;68776;44.762;37.698;2023-07-29T00:37:25;2.63;;;0.70;;
74872;SDS011;68776;44.762;37.698;2023-07-29T00:38:26;3.40;;;0.80;;
74872;SDS011;68776;44.762;37.698;2023-07-29T00:39:28;2.45;;;0.75;;
74872;SDS011;68776;44.762;37.698;2023-07-29T00:40:29;2.22;;;0.70;;
74872;SDS011;68776;44.762;37.698;2023-07-29T00:41:35;2.65;;;0.85;;
74872;SDS011;68776;44.762;37.698;2023-07-29T00:42:36;3.00;;;0.80;;
74872;SDS011;68776;44.762;37.698;2023-07-29T00:43:37;5.35;;;1.00;;
74872;SDS011;68776;44.762;37.698;2023-07-29T00:44:38;2.85;;;0.90;;
74872;SDS011;68776;44.762;37.698;2023-07-29T00:45:39;2.03;;;0.68;;
74872;SDS011;68776;44.762;37.698;2023-07-29T00:46:43;5.22;;;1.02;;
74872;SDS011;68776;44.762;37.698;2023-07-29T00:47:47;2.75;;;0.70;;
74872;SDS011;68776;44.762;37.698;2023-07-29T00:48:51;2.97;;;1.00;;
74872;SDS011;68776;44.762;37.698;2023-07-29T00:49:52;3.15;;;0.90;;
74872;SDS011;68776;44.762;37.698;2023-07-29T00:50:53;2.08;;;0.50;;
74872;SDS011;68776;44.762;37.698;2023-07-29T00:51:54;3.50;;;1.05;;
74872;SDS011;68776;44.762;37.698;2023-07-29T00:52:58;2.40;;;0.90;;
74872;SDS011;68776;44.762;37.698;2023-07-29T00:53:59;2.97;;;0.90;;
74872;SDS011;68776;44.762;37.698;2023-07-29T00:55:01;4.82;;;1.00;;
74872;SDS011;68776;44.762;37.698;2023-07-29T01:56:58;29.02;;;8.02;;
74872;SDS011;68776;44.762;37.698;2023-07-29T01:57:59;10.88;;;3.97;;
74872;SDS011;68776;44.762;37.698;2023-07-29T01:59:00;2.83;;;1.17;;
74872;SDS011;68776;44.762;37.698;2023-07-29T02:00:02;3.42;;;1.27;;
74872;SDS011;68776;44.762;37.698;2023-07-29T04:18:41;10.85;;;3.72;;
74872;SDS011;68776;44.762;37.698;2023-07-29T04:19:42;2.30;;;0.97;;
74872;SDS011;68776;44.762;37.698;2023-07-29T04:20:43;3.55;;;1.50;;
74872;SDS011;68776;44.762;37.698;2023-07-29T04:21:44;4.93;;;1.45;;
74872;SDS011;68776;44.762;37.698;2023-07-29T04:48:13;12.77;;;4.37;;
74872;SDS011;68776;44.762;37.698;2023-07-29T04:49:14;2.30;;;0.80;;
74872;SDS011;68776;44.762;37.698;2023-07-29T04:51:16;10.52;;;3.53;;
74872;SDS011;68776;44.762;37.698;2023-07-29T04:55:22;11.35;;;3.67;;
74872;SDS011;68776;44.762;37.698;2023-07-29T04:56:23;2.60;;;0.70;;
74872;SDS011;68776;44.762;37.698;2023-07-29T04:57:24;10.38;;;3.45;;
74872;SDS011;68776;44.762;37.698;2023-07-29T04:58:25;10.77;;;3.67;;
74872;SDS011;68776;44.762;37.698;2023-07-29T04:59:27;3.58;;;1.05;;
74872;SDS011;68776;44.762;37.698;2023-07-29T05:00:28;2.15;;;0.90;;
74872;SDS011;68776;44.762;37.698;2023-07-29T05:01:29;4.28;;;0.93;;
74872;SDS011;68776;44.762;37.698;2023-07-29T05:02:30;13.27;;;4.03;;
74872;SDS011;68776;44.762;37.698;2023-07-29T05:03:31;17.85;;;4.15;;
74872;SDS011;68776;44.762;37.698;2023-07-29T05:07:35;17.30;;;4.23;;
74872;SDS011;68776;44.762;37.698;2023-07-29T05:08:36;13.52;;;4.50;;
74872;SDS011;68776;44.762;37.698;2023-07-29T05:09:37;14.27;;;4.63;;
74872;SDS011;68776;44.762;37.698;2023-07-29T05:10:38;2.50;;;0.88;;
74872;SDS011;68776;44.762;37.698;2023-07-29T05:11:39;2.92;;;0.80;;
74872;SDS011;68776;44.762;37.698;2023-07-29T05:12:40;2.63;;;0.93;;
74872;SDS011;68776;44.762;37.698;2023-07-29T05:13:41;4.47;;;0.80;;
74872;SDS011;68776;44.762;37.698;2023-07-29T05:14:45;7.57;;;0.82;;
74872;SDS011;68776;44.762;37.698;2023-07-29T05:15:49;2.67;;;0.87;;
74872;SDS011;68776;44.762;37.698;2023-07-29T05:16:50;12.85;;;3.80;;
74872;SDS011;68776;44.762;37.698;2023-07-29T05:17:51;15.10;;;4.20;;
74872;SDS011;68776;44.762;37.698;2023-07-29T05:18:53;12.57;;;3.90;;
74872;SDS011;68776;44.762;37.698;2023-07-29T05:19:54;16.20;;;3.80;;
74872;SDS011;68776;44.762;37.698;2023-07-29T05:20:55;15.85;;;5.20;;
74872;SDS011;68776;44.762;37.698;2023-07-29T05:21:56;14.02;;;4.13;;
74872;SDS011;68776;44.762;37.698;2023-07-29T05:22:57;18.55;;;4.22;;
74872;SDS011;68776;44.762;37.698;2023-07-29T05:23:58;14.43;;;4.53;;
74872;SDS011;68776;44.762;37.698;2023-07-29T05:24:59;13.45;;;3.90;;
74872;SDS011;68776;44.762;37.698;2023-07-29T05:26:00;15.40;;;5.00;;
74872;SDS011;68776;44.762;37.698;2023-07-29T05:27:01;13.65;;;4.13;;
74872;SDS011;68776;44.762;37.698;2023-07-29T05:28:03;16.00;;;4.00;;
74872;SDS011;68776;44.762;37.698;2023-07-29T05:29:04;12.25;;;3.92;;
74872;SDS011;68776;44.762;37.698;2023-07-29T05:30:06;13.40;;;4.22;;
74872;SDS011;68776;44.762;37.698;2023-07-29T05:31:07;11.65;;;3.45;;
74872;SDS011;68776;44.762;37.698;2023-07-29T05:32:09;13.27;;;3.90;;
74872;SDS011;68776;44.762;37.698;2023-07-29T05:33:10;13.18;;;3.90;;
74872;SDS011;68776;44.762;37.698;2023-07-29T05:34:13;14.43;;;4.28;;
74872;SDS011;68776;44.762;37.698;2023-07-29T05:35:14;14.85;;;4.57;;
74872;SDS011;68776;44.762;37.698;2023-07-29T05:36:15;15.07;;;4.37;;
74872;SDS011;68776;44.762;37.698;2023-07-29T05:37:16;14.10;;;4.03;;
74872;SDS011;68776;44.762;37.698;2023-07-29T05:38:17;12.85;;;3.95;;
74872;SDS011;68776;44.762;37.698;2023-07-29T05:39:18;14.82;;;4.20;;
74872;SDS011;68776;44.762;37.698;2023-07-29T05:40:19;15.48;;;4.20;;
74872;SDS011;68776;44.762;37.698;2023-07-29T05:41:21;15.10;;;4.35;;
74872;SDS011;68776;44.762;37.698;2023-07-29T05:42:22;13.88;;;3.90;;
74872;SDS011;68776;44.762;37.698;2023-07-29T05:43:25;15.77;;;4.38;;
74872;SDS011;68776;44.762;37.698;2023-07-29T05:44:27;14.10;;;4.05;;
74872;SDS011;68776;44.762;37.698;2023-07-29T05:45:28;16.20;;;4.60;;
74872;SDS011;68776;44.762;37.698;2023-07-29T05:46:31;16.93;;;4.67;;
74872;SDS011;68776;44.762;37.698;2023-07-29T05:47:32;13.55;;;3.90;;
74872;SDS011;68776;44.762;37.698;2023-07-29T05:48:33;15.50;;;4.63;;
74872;SDS011;68776;44.762;37.698;2023-07-29T05:49:34;13.32;;;4.10;;
74872;SDS011;68776;44.762;37.698;2023-07-29T05:50:35;14.65;;;4.18;;
74872;SDS011;68776;44.762;37.698;2023-07-29T05:51:36;15.48;;;4.45;;
74872;SDS011;68776;44.762;37.698;2023-07-29T05:52:37;16.33;;;4.53;;
74872;SDS011;68776;44.762;37.698;2023-07-29T05:53:38;14.38;;;4.15;;
74872;SDS011;68776;44.762;37.698;2023-07-29T05:54:39;14.50;;;4.35;;
74872;SDS011;68776;44.762;37.698;2023-07-29T05:55:40;14.00;;;4.03;;
74872;SDS011;68776;44.762;37.698;2023-07-29T05:56:41;15.60;;;4.57;;
74872;SDS011;68776;44.762;37.698;2023-07-29T05:57:43;15.18;;;4.43;;
74872;SDS011;68776;44.762;37.698;2023-07-29T06:17:12;18.35;;;4.97;;
74872;SDS011;68776;44.762;37.698;2023-07-29T06:18:13;2.53;;;0.60;;
74872;SDS011;68776;44.762;37.698;2023-07-29T06:19:14;14.95;;;4.35;;
74872;SDS011;68776;44.762;37.698;2023-07-29T06:20:15;19.92;;;4.60;;
74872;SDS011;68776;44.762;37.698;2023-07-29T06:21:16;15.45;;;4.63;;
74872;SDS011;68776;44.762;37.698;2023-07-29T06:22:19;15.93;;;4.90;;
74872;SDS011;68776;44.762;37.698;2023-07-29T06:23:20;14.32;;;4.10;;
74872;SDS011;68776;44.762;37.698;2023-07-29T06:24:21;14.65;;;4.45;;
74872;SDS011;68776;44.762;37.698;2023-07-29T06:25:22;13.45;;;3.83;;
74872;SDS011;68776;44.762;37.698;2023-07-29T06:26:23;15.75;;;4.53;;
74872;SDS011;68776;44.762;37.698;2023-07-29T06:27:24;16.05;;;4.65;;
74872;SDS011;68776;44.762;37.698;2023-07-29T06:28:26;16.20;;;4.72;;
74872;SDS011;68776;44.762;37.698;2023-07-29T06:29:27;16.40;;;4.53;;
74872;SDS011;68776;44.762;37.698;2023-07-29T06:37:33;22.40;;;6.23;;
74872;SDS011;68776;44.762;37.698;2023-07-29T06:44:40;20.77;;;5.80;;
74872;SDS011;68776;44.762;37.698;2023-07-29T06:45:41;3.15;;;0.70;;
74872;SDS011;68776;44.762;37.698;2023-07-29T06:46:42;3.65;;;0.98;;
74872;SDS011;68776;44.762;37.698;2023-07-29T06:47:43;2.80;;;0.98;;
74872;SDS011;68776;44.762;37.698;2023-07-29T06:48:45;6.57;;;1.15;;
74872;SDS011;68776;44.762;37.698;2023-07-29T06:49:46;4.53;;;1.13;;
74872;SDS011;68776;44.762;37.698;2023-07-29T06:50:47;2.53;;;0.80;;
74872;SDS011;68776;44.762;37.698;2023-07-29T06:51:50;17.55;;;4.82;;
74872;SDS011;68776;44.762;37.698;2023-07-29T06:52:51;20.52;;;5.05;;
74872;SDS011;68776;44.762;37.698;2023-07-29T06:53:52;3.22;;;1.00;;
74872;SDS011;68776;44.762;37.698;2023-07-29T06:54:53;3.17;;;0.80;;
74872;SDS011;68776;44.762;37.698;2023-07-29T06:55:54;18.47;;;5.13;;
74872;SDS011;68776;44.762;37.698;2023-07-29T06:56:55;15.63;;;4.20;;
74872;SDS011;68776;44.762;37.698;2023-07-29T06:57:56;16.23;;;4.63;;
74872;SDS011;68776;44.762;37.698;2023-07-29T06:58:57;14.10;;;3.88;;
74872;SDS011;68776;44.762;37.698;2023-07-29T06:59:58;18.15;;;4.95;;
74872;SDS011;68776;44.762;37.698;2023-07-29T07:00:59;17.52;;;4.68;;
74872;SDS011;68776;44.762;37.698;2023-07-29T07:02:00;18.58;;;4.95;;
74872;SDS011;68776;44.762;37.698;2023-07-29T07:03:02;21.27;;;5.15;;
74872;SDS011;68776;44.762;37.698;2023-07-29T07:04:03;22.13;;;5.50;;
74872;SDS011;68776;44.762;37.698;2023-07-29T07:05:04;23.43;;;5.80;;
74872;SDS011;68776;44.762;37.698;2023-07-29T07:06:05;27.38;;;6.63;;
74872;SDS011;68776;44.762;37.698;2023-07-29T07:07:06;27.55;;;6.38;;
74872;SDS011;68776;44.762;37.698;2023-07-29T07:08:07;29.85;;;6.47;;
74872;SDS011;68776;44.762;37.698;2023-07-29T07:23:20;29.17;;;6.80;;
74872;SDS011;68776;44.762;37.698;2023-07-29T07:24:21;1.77;;;0.60;;
74872;SDS011;68776;44.762;37.698;2023-07-29T07:25:22;30.37;;;7.03;;
74872;SDS011;68776;44.762;37.698;2023-07-29T07:26:23;29.60;;;7.13;;
74872;SDS011;68776;44.762;37.698;2023-07-29T07:27:24;29.13;;;7.15;;
74872;SDS011;68776;44.762;37.698;2023-07-29T07:28:25;29.77;;;6.55;;
74872;SDS011;68776;44.762;37.698;2023-07-29T07:29:26;206.73;;;62.28;;
74872;SDS011;68776;44.762;37.698;2023-07-29T07:30:27;214.02;;;68.82;;
74872;SDS011;68776;44.762;37.698;2023-07-29T07:34:35;81.45;;;19.92;;
74872;SDS011;68776;44.762;37.698;2023-07-29T07:35:36;100.78;;;37.28;;
74872;SDS011;68776;44.762;37.698;2023-07-29T07:39:39;64.23;;;23.37;;
74872;SDS011;68776;44.762;37.698;2023-07-29T07:40:40;82.55;;;25.65;;
74872;SDS011;68776;44.762;37.698;2023-07-29T07:41:41;610.33;;;178.10;;
74872;SDS011;68776;44.762;37.698;2023-07-29T07:42:42;430.67;;;129.13;;
74872;SDS011;68776;44.762;37.698;2023-07-29T07:43:43;707.83;;;201.13;;
74872;SDS011;68776;44.762;37.698;2023-07-29T07:44:44;618.53;;;177.43;;
74872;SDS011;68776;44.762;37.698;2023-07-29T07:45:46;5.93;;;2.88;;
74872;SDS011;68776;44.762;37.698;2023-07-29T08:03:07;152.75;;;50.63;;
74872;SDS011;68776;44.762;37.698;2023-07-29T08:04:09;359.42;;;101.60;;
74872;SDS011;68776;44.762;37.698;2023-07-29T08:10:15;623.15;;;172.43;;
74872;SDS011;68776;44.762;37.698;2023-07-29T08:12:17;866.35;;;242.20;;
74872;SDS011;68776;44.762;37.698;2023-07-29T08:13:18;726.77;;;205.70;;
74872;SDS011;68776;44.762;37.698;2023-07-29T08:14:19;921.10;;;261.93;;
74872;SDS011;68776;44.762;37.698;2023-07-29T08:28:35;1003.28;;;283.52;;
74872;SDS011;68776;44.762;37.698;2023-07-29T08:29:37;77.78;;;41.15;;
74872;SDS011;68776;44.762;37.698;2023-07-29T08:30:38;284.02;;;93.28;;
74872;SDS011;68776;44.762;37.698;2023-07-29T08:31:39;128.52;;;37.78;;
74872;SDS011;68776;44.762;37.698;2023-07-29T08:32:39;553.03;;;155.07;;
74872;SDS011;68776;44.762;37.698;2023-07-29T08:33:40;527.47;;;147.00;;
74872;SDS011;68776;44.762;37.698;2023-07-29T08:34:41;591.30;;;162.50;;
74872;SDS011;68776;44.762;37.698;2023-07-29T08:35:42;686.55;;;187.30;;
74872;SDS011;68776;44.762;37.698;2023-07-29T08:36:43;432.67;;;125.93;;
74872;SDS011;68776;44.762;37.698;2023-07-29T08:37:44;539.13;;;149.88;;
74872;SDS011;68776;44.762;37.698;2023-07-29T08:38:45;277.85;;;93.40;;
74872;SDS011;68776;44.762;37.698;2023-07-29T08:39:46;469.92;;;134.25;;
74872;SDS011;68776;44.762;37.698;2023-07-29T08:40:52;96.15;;;49.10;;
74872;SDS011;68776;44.762;37.698;2023-07-29T08:42:08;23.98;;;22.08;;
74872;SDS011;68776;44.762;37.698;2023-07-29T08:43:12;39.63;;;34.47;;
74872;SDS011;68776;44.762;37.698;2023-07-29T08:44:23;45.08;;;37.80;;
74872;SDS011;68776;44.762;37.698;2023-07-29T08:45:30;375.37;;;114.57;;
74872;SDS011;68776;44.762;37.698;2023-07-29T08:46:35;525.40;;;145.82;;
74872;SDS011;68776;44.762;37.698;2023-07-29T09:15:30;492.95;;;140.85;;
74872;SDS011;68776;44.762;37.698;2023-07-29T09:16:32;73.05;;;38.33;;
74872;SDS011;68776;44.762;37.698;2023-07-29T09:17:34;244.25;;;78.18;;
74872;SDS011;68776;44.762;37.698;2023-07-29T09:18:35;179.00;;;62.25;;
74872;SDS011;68776;44.762;37.698;2023-07-29T09:19:37;130.45;;;36.83;;
74872;SDS011;68776;44.762;37.698;2023-07-29T09:20:38;578.17;;;161.48;;
74872;SDS011;68776;44.762;37.698;2023-07-29T09:21:39;534.70;;;150.00;;
74872;SDS011;68776;44.762;37.698;2023-07-29T09:22:41;566.17;;;159.73;;
74872;SDS011;68776;44.762;37.698;2023-07-29T09:23:44;45.38;;;10.95;;
74872;SDS011;68776;44.762;37.698;2023-07-29T09:24:46;48.13;;;12.45;;
74872;SDS011;68776;44.762;37.698;2023-07-29T09:25:47;527.87;;;146.90;;
74872;SDS011;68776;44.762;37.698;2023-07-29T09:26:49;59.88;;;15.68;;
74872;SDS011;68776;44.762;37.698;2023-07-29T09:27:50;356.98;;;100.55;;
74872;SDS011;68776;44.762;37.698;2023-07-29T09:28:55;51.30;;;12.68;;
74872;SDS011;68776;44.762;37.698;2023-07-29T09:29:57;393.70;;;119.75;;
74872;SDS011;68776;44.762;37.698;2023-07-29T09:30:58;243.80;;;72.20;;
74872;SDS011;68776;44.762;37.698;2023-07-29T09:35:20;473.70;;;127.83;;
74872;SDS011;68776;44.762;37.698;2023-07-29T09:36:21;266.02;;;85.47;;
74872;SDS011;68776;44.762;37.698;2023-07-29T09:37:22;182.47;;;52.33;;
74872;SDS011;68776;44.762;37.698;2023-07-29T09:38:27;49.42;;;13.57;;
74872;SDS011;68776;44.762;37.698;2023-07-29T13:43:57;53.63;;;12.00;;
74872;SDS011;68776;44.762;37.698;2023-07-29T14:11:21;463.83;;;130.43;;
74872;SDS011;68776;44.762;37.698;2023-07-29T14:12:22;487.80;;;139.47;;
74872;SDS011;68776;44.762;37.698;2023-07-29T14:13:23;3.42;;;0.90;;
74872;SDS011;68776;44.762;37.698;2023-07-29T14:14:24;43.25;;;10.65;;
74872;SDS011;68776;44.762;37.698;2023-07-29T14:20:37;63.95;;;21.65;;
74872;SDS011;68776;44.762;37.698;2023-07-29T14:21:38;158.98;;;43.22;;
74872;SDS011;68776;44.762;37.698;2023-07-29T14:22:39;3.00;;;0.82;;
74872;SDS011;68776;44.762;37.698;2023-07-29T14:23:40;16.88;;;4.75;;
74872;SDS011;68776;44.762;37.698;2023-07-29T14:24:41;41.55;;;23.98;;
74872;SDS011;68776;44.762;37.698;2023-07-29T14:25:42;13.60;;;5.63;;
74872;SDS011;68776;44.762;37.698;2023-07-29T14:26:43;21.48;;;8.88;;
74872;SDS011;68776;44.762;37.698;2023-07-29T14:27:44;84.18;;;24.20;;
74872;SDS011;68776;44.762;37.698;2023-07-29T14:28:45;28.67;;;12.35;;
74872;SDS011;68776;44.762;37.698;2023-07-29T14:29:46;143.73;;;49.67;;
74872;SDS011;68776;44.762;37.698;2023-07-29T14:30:47;188.98;;;59.67;;
74872;SDS011;68776;44.762;37.698;2023-07-29T14:38:54;590.20;;;165.25;;
74872;SDS011;68776;44.762;37.698;2023-07-29T14:39:56;330.63;;;94.87;;
74872;SDS011;68776;44.762;37.698;2023-07-29T14:41:00;183.73;;;63.47;;
74872;SDS011;68776;44.762;37.698;2023-07-29T14:42:01;5.80;;;1.60;;
74872;SDS011;68776;44.762;37.698;2023-07-29T14:43:02;12.38;;;3.40;;
74872;SDS011;68776;44.762;37.698;2023-07-29T14:44:03;6.40;;;1.42;;
74872;SDS011;68776;44.762;37.698;2023-07-29T14:45:05;4.65;;;1.25;;
74872;SDS011;68776;44.762;37.698;2023-07-29T14:46:06;100.63;;;30.27;;
74872;SDS011;68776;44.762;37.698;2023-07-29T14:47:07;157.52;;;42.75;;
74872;SDS011;68776;44.762;37.698;2023-07-29T14:48:08;108.32;;;29.80;;
74872;SDS011;68776;44.762;37.698;2023-07-29T14:49:09;34.77;;;14.57;;
74872;SDS011;68776;44.762;37.698;2023-07-29T14:50:10;278.50;;;80.22;;
74872;SDS011;68776;44.762;37.698;2023-07-29T14:51:11;11.80;;;4.78;;
74872;SDS011;68776;44.762;37.698;2023-07-29T14:53:14;45.13;;;12.47;;
74872;SDS011;68776;44.762;37.698;2023-07-29T15:02:22;34.42;;;9.40;;
74872;SDS011;68776;44.762;37.698;2023-07-29T15:03:27;64.20;;;15.43;;
74872;SDS011;68776;44.762;37.698;2023-07-29T15:25:49;308.02;;;87.18;;
74872;SDS011;68776;44.762;37.698;2023-07-29T15:26:50;238.85;;;63.45;;
74872;SDS011;68776;44.762;37.698;2023-07-29T15:27:51;4.37;;;0.90;;
74872;SDS011;68776;44.762;37.698;2023-07-29T15:28:52;5.60;;;1.58;;
74872;SDS011;68776;44.762;37.698;2023-07-29T15:29:53;6.57;;;1.10;;
74872;SDS011;68776;44.762;37.698;2023-07-29T15:30:54;4.07;;;1.25;;
74872;SDS011;68776;44.762;37.698;2023-07-29T15:31:55;4.60;;;1.85;;
74872;SDS011;68776;44.762;37.698;2023-07-29T15:32:56;3.47;;;1.15;;
74872;SDS011;68776;44.762;37.698;2023-07-29T15:33:57;25.23;;;6.15;;
74872;SDS011;68776;44.762;37.698;2023-07-29T15:34:58;20.63;;;5.05;;
74872;SDS011;68776;44.762;37.698;2023-07-29T15:50:17;20.83;;;5.45;;
74872;SDS011;68776;44.762;37.698;2023-07-29T15:51:18;22.90;;;5.68;;
74872;SDS011;68776;44.762;37.698;2023-07-29T15:56:23;23.20;;;5.78;;
74872;SDS011;68776;44.762;37.698;2023-07-29T15:57:24;22.92;;;5.88;;
74872;SDS011;68776;44.762;37.698;2023-07-29T15:58:25;23.70;;;6.15;;
74872;SDS011;68776;44.762;37.698;2023-07-29T15:59:26;23.60;;;6.60;;
74872;SDS011;68776;44.762;37.698;2023-07-29T16:00:27;21.93;;;5.53;;
74872;SDS011;68776;44.762;37.698;2023-07-29T16:06:33;22.83;;;5.88;;
74872;SDS011;68776;44.762;37.698;2023-07-29T16:07:35;20.25;;;4.97;;
74872;SDS011;68776;44.762;37.698;2023-07-29T16:08:36;21.75;;;5.45;;
74872;SDS011;68776;44.762;37.698;2023-07-29T16:09:37;22.58;;;5.88;;
74872;SDS011;68776;44.762;37.698;2023-07-29T16:10:38;23.15;;;6.38;;
74872;SDS011;68776;44.762;37.698;2023-07-29T16:11:39;22.73;;;5.97;;
74872;SDS011;68776;44.762;37.698;2023-07-29T16:12:40;23.73;;;6.50;;
74872;SDS011;68776;44.762;37.698;2023-07-29T16:13:41;3.28;;;1.30;;
74872;SDS011;68776;44.762;37.698;2023-07-29T16:14:42;3.28;;;1.30;;
74872;SDS011;68776;44.762;37.698;2023-07-29T16:15:43;7.10;;;1.95;;
74872;SDS011;68776;44.762;37.698;2023-07-29T16:16:44;4.07;;;1.13;;
74872;SDS011;68776;44.762;37.698;2023-07-29T16:17:46;3.30;;;1.17;;
74872;SDS011;68776;44.762;37.698;2023-07-29T16:18:50;3.70;;;1.02;;
74872;SDS011;68776;44.762;37.698;2023-07-29T16:19:52;6.50;;;1.30;;
74872;SDS011;68776;44.762;37.698;2023-07-29T16:20:54;9.02;;;1.52;;
74872;SDS011;68776;44.762;37.698;2023-07-29T16:22:01;22.65;;;5.70;;
74872;SDS011;68776;44.762;37.698;2023-07-29T16:23:02;25.25;;;5.28;;
74872;SDS011;68776;44.762;37.698;2023-07-29T16:24:03;22.42;;;5.72;;
74872;SDS011;68776;44.762;37.698;2023-07-29T16:25:05;22.40;;;5.68;;
74872;SDS011;68776;44.762;37.698;2023-07-29T16:26:06;2.95;;;1.08;;
74872;SDS011;68776;44.762;37.698;2023-07-29T16:27:07;3.65;;;1.00;;
74872;SDS011;68776;44.762;37.698;2023-07-29T16:28:08;6.65;;;0.90;;
74872;SDS011;68776;44.762;37.698;2023-07-29T16:29:09;5.95;;;1.38;;
74872;SDS011;68776;44.762;37.698;2023-07-29T16:30:10;12.68;;;0.98;;
74872;SDS011;68776;44.762;37.698;2023-07-29T16:31:11;3.92;;;1.15;;
74872;SDS011;68776;44.762;37.698;2023-07-29T16:32:14;3.08;;;0.85;;
74872;SDS011;68776;44.762;37.698;2023-07-29T16:33:16;3.20;;;1.10;;
74872;SDS011;68776;44.762;37.698;2023-07-29T16:34:17;6.63;;;0.97;;
74872;SDS011;68776;44.762;37.698;2023-07-29T16:35:18;3.63;;;1.00;;
74872;SDS011;68776;44.762;37.698;2023-07-29T16:36:19;3.92;;;1.20;;
74872;SDS011;68776;44.762;37.698;2023-07-29T16:37:20;3.40;;;0.85;;
74872;SDS011;68776;44.762;37.698;2023-07-29T16:38:21;2.97;;;0.65;;
74872;SDS011;68776;44.762;37.698;2023-07-29T16:39:22;7.35;;;1.20;;
74872;SDS011;68776;44.762;37.698;2023-07-29T16:40:23;4.20;;;1.65;;
74872;SDS011;68776;44.762;37.698;2023-07-29T16:41:24;5.65;;;1.00;;
74872;SDS011;68776;44.762;37.698;2023-07-29T16:42:25;5.78;;;1.10;;
74872;SDS011;68776;44.762;37.698;2023-07-29T16:43:26;3.25;;;1.30;;
74872;SDS011;68776;44.762;37.698;2023-07-29T16:44:27;6.23;;;1.13;;
74872;SDS011;68776;44.762;37.698;2023-07-29T16:45:28;3.20;;;0.85;;
74872;SDS011;68776;44.762;37.698;2023-07-29T16:46:30;5.13;;;1.20;;
74872;SDS011;68776;44.762;37.698;2023-07-29T16:53:37;23.43;;;5.90;;
74872;SDS011;68776;44.762;37.698;2023-07-29T16:54:38;25.88;;;5.70;;
74872;SDS011;68776;44.762;37.698;2023-07-29T16:55:39;22.00;;;5.55;;
74872;SDS011;68776;44.762;37.698;2023-07-29T16:56:40;20.98;;;5.18;;
74872;SDS011;68776;44.762;37.698;2023-07-29T17:50:37;23.70;;;5.95;;
74872;SDS011;68776;44.762;37.698;2023-07-29T17:51:38;28.63;;;7.63;;
74872;SDS011;68776;44.762;37.698;2023-07-29T17:52:39;23.48;;;6.65;;
74872;SDS011;68776;44.762;37.698;2023-07-29T17:53:40;29.30;;;7.70;;
74872;SDS011;68776;44.762;37.698;2023-07-29T17:54:42;24.70;;;6.03;;
74872;SDS011;68776;44.762;37.698;2023-07-29T17:55:43;6.32;;;2.78;;
74872;SDS011;68776;44.762;37.698;2023-07-29T17:56:44;9.10;;;4.07;;
74872;SDS011;68776;44.762;37.698;2023-07-29T17:57:45;9.70;;;4.68;;
74872;SDS011;68776;44.762;37.698;2023-07-29T17:58:46;6.50;;;2.38;;
74872;SDS011;68776;44.762;37.698;2023-07-29T17:59:47;7.38;;;2.10;;
74872;SDS011;68776;44.762;37.698;2023-07-29T18:00:48;7.68;;;3.40;;
74872;SDS011;68776;44.762;37.698;2023-07-29T18:01:49;6.72;;;2.58;;
74872;SDS011;68776;44.762;37.698;2023-07-29T18:02:50;6.38;;;2.55;;
74872;SDS011;68776;44.762;37.698;2023-07-29T18:03:52;7.15;;;3.22;;
74872;SDS011;68776;44.762;37.698;2023-07-29T18:04:54;4.85;;;2.20;;
74872;SDS011;68776;44.762;37.698;2023-07-29T18:05:55;12.45;;;2.38;;
74872;SDS011;68776;44.762;37.698;2023-07-29T18:06:56;10.38;;;2.47;;
74872;SDS011;68776;44.762;37.698;2023-07-29T18:07:57;5.03;;;2.00;;
74872;SDS011;68776;44.762;37.698;2023-07-29T18:08:58;7.55;;;2.25;;
74872;SDS011;68776;44.762;37.698;2023-07-29T18:09:59;8.07;;;2.47;;
74872;SDS011;68776;44.762;37.698;2023-07-29T18:11:00;8.63;;;2.35;;
74872;SDS011;68776;44.762;37.698;2023-07-29T18:12:01;8.63;;;2.40;;
74872;SDS011;68776;44.762;37.698;2023-07-29T18:13:02;12.20;;;2.27;;
74872;SDS011;68776;44.762;37.698;2023-07-29T18:14:03;5.70;;;2.15;;
74872;SDS011;68776;44.762;37.698;2023-07-29T18:15:05;5.53;;;1.55;;
74872;SDS011;68776;44.762;37.698;2023-07-29T18:16:06;5.22;;;1.70;;
74872;SDS011;68776;44.762;37.698;2023-07-29T18:17:07;5.28;;;1.85;;
74872;SDS011;68776;44.762;37.698;2023-07-29T18:18:08;6.68;;;1.90;;
74872;SDS011;68776;44.762;37.698;2023-07-29T18:19:09;9.95;;;1.80;;
74872;SDS011;68776;44.762;37.698;2023-07-29T18:20:10;6.18;;;2.30;;
74872;SDS011;68776;44.762;37.698;2023-07-29T18:21:11;6.05;;;1.77;;
74872;SDS011;68776;44.762;37.698;2023-07-29T18:22:12;5.13;;;1.80;;
74872;SDS011;68776;44.762;37.698;2023-07-29T18:23:14;8.23;;;2.00;;
74872;SDS011;68776;44.762;37.698;2023-07-29T18:24:15;22.27;;;6.22;;
74872;SDS011;68776;44.762;37.698;2023-07-29T18:25:16;23.70;;;6.18;;